Detalii statie RANDUNICA PREST ANDRID [00001984]

Toti senzorii

Date Temperatura solului [C]Precipitatii [mm]Voltaj baterie [mV]Leaf Wetness [Min]HC Air temperature [C]HC Relative humidity [%]Punctul de roua [C]
medieminmaxsumaultimatimpmedieminmaxmediemediemin
2018-02-23 13:00:00 2.9 2.8 3 0 6932 3.31 3.08 3.58 0 0 0
2018-02-23 14:00:00 3 2.9 3.2 0 6972 3.54 3.28 3.71 0 0 0
2018-02-23 15:00:00 3.2 3.1 3.3 0 7010 3.18 3.05 3.28 0 0 0
2018-02-23 16:00:00 3.3 3.3 3.3 0 6992 2.87 2.59 3.09 0 0 0
2018-02-23 17:00:00 3.3 3.2 3.5 0 6972 2.18 1.71 2.63 0 0 0
2018-02-23 18:00:00 3.4 3.2 3.5 0.2 6942 1.28 0.93 1.63 0 0 0
2018-02-23 19:00:00 3.3 3.3 3.5 0 6904 0.75 0.69 0.86 0 0 0
2018-02-23 20:00:00 3.3 3.2 3.4 0 6854 0.16 -0.3 0.7 0 0 0
2018-02-23 21:00:00 3.1 3 3.3 0 6826 -0.67 -0.9 -0.31 0 0 0
2018-02-23 22:00:00 3 3 3.1 0 6826 -1.14 -1.5 -0.86 0 0 0
2018-02-23 23:00:00 2.8 2.8 3 0 6806 -1.67 -1.74 -1.57 0 0 0
2018-02-24 00:00:00 2.8 2.8 3 0 6806 -1.8 -1.87 -1.76 0 0 0
2018-02-24 01:00:00 2.7 2.7 2.9 0 6806 -1.88 -1.94 -1.78 0 0 0
2018-02-24 02:00:00 2.6 2.6 2.8 0 6806 -2.12 -2.33 -1.94 0 0 0
2018-02-24 03:00:00 2.6 2.6 2.8 0 6806 -2.55 -2.8 -2.38 0 0 0
2018-02-24 04:00:00 2.5 2.5 2.7 0 6806 -3.17 -3.71 -2.8 0 0 0
2018-02-24 05:00:00 2.4 2.3 2.6 0 6806 -4.54 -4.95 -4.01 0 0 0
2018-02-24 06:00:00 2.3 2.2 2.4 0 6796 -5.19 -5.51 -4.95 0 0 0
2018-02-24 07:00:00 2.2 2.2 2.3 0 6806 -5.84 -6.31 -5.53 0 0 0
2018-02-24 08:00:00 2.1 2.1 2.2 0 6776 -5.94 -6.26 -5.59 0 0 0
2018-02-24 09:00:00 2 1.9 2.2 0 6786 -4.69 -5.56 -3.83 0 0 0
2018-02-24 10:00:00 1.9 1.9 2.1 0 6796 -3.13 -3.77 -2.7 0 0 0
2018-02-24 11:00:00 1.9 1.9 2 0 6864 -2 -2.43 -1.58 0 0 0
2018-02-24 12:00:00 1.8 1.8 2 0 7138 -1.11 -1.63 -0.57 0 0 0
2018-02-24 13:00:00 1.8 1.7 1.9 0 7284 -0.29 -0.66 0.15 0 0 0
2018-02-24 14:00:00 1.8 1.7 2.1 0.4 7284 0.64 0.24 1.11 0 0 0
2018-02-24 15:00:00 2.1 2 2.3 0.2 7284 0.9 0.74 1.05 0 0 0
2018-02-24 16:00:00 2.4 2.3 2.5 0 7284 0.78 0.51 1.41 0 0 0
2018-02-24 17:00:00 2.5 2.5 2.7 0 7274 0.16 -0.92 0.72 0 0 0
2018-02-24 18:00:00 2.5 2.4 2.7 0 7050 -1.55 -1.96 -1.07 0 0 0
2018-02-24 19:00:00 2.4 2.3 2.5 0 6992 -2.41 -2.85 -2.04 0 0 0
2018-02-24 20:00:00 2.3 2.2 2.4 0 6962 -3.75 -4.21 -3.01 0 0 0
2018-02-24 21:00:00 2.1 2.1 2.3 0 6952 -4.51 -4.74 -4.25 0 0 0
2018-02-24 22:00:00 2 1.9 2.2 0 6952 -5.14 -5.52 -4.81 0 0 0
2018-02-24 23:00:00 1.9 1.8 2 0 6932 -5.65 -5.86 -5.48 0 0 0
2018-02-25 00:00:00 1.7 1.6 1.9 0 6932 -6.11 -6.34 -5.84 0 0 0
2018-02-25 01:00:00 1.6 1.4 1.7 0 6922 -6.2 -6.37 -6.1 0 0 0
2018-02-25 02:00:00 1.5 1.4 1.8 0 6922 -6.39 -6.53 -6.12 0 0 0
2018-02-25 03:00:00 1.4 1.3 1.5 0 6914 -6.9 -7.37 -6.61 0 0 0
2018-02-25 04:00:00 1.3 1.2 1.4 0 6914 -7.68 -7.8 -7.56 0 0 0
2018-02-25 05:00:00 1.2 1.1 1.3 0 6904 -7.91 -8.22 -7.6 0 0 0
2018-02-25 06:00:00 1.1 1.1 1.3 0 6904 -8.35 -8.44 -8.21 0 0 0
2018-02-25 07:00:00 1.1 1 1.3 0 6904 -8.55 -8.72 -8.35 0 0 0
2018-02-25 08:00:00 1 1 1.2 0 6894 -8.64 -8.72 -8.46 0 0 0
2018-02-25 09:00:00 1 1 1.1 0 6942 -7.88 -8.46 -7.4 0 0 0
2018-02-25 10:00:00 0.9 0.8 1.1 0 7050 -6.68 -7.38 -6.31 0 0 0
2018-02-25 11:00:00 0.8 0.8 0.9 0 7274 -5.54 -6.05 -4.83 0 0 0